Disclaimer

Please do not use the information listed here in-flight or in-navigation, as they are not provided to us by the airports but are provided by volunteers, so they might be outdated.

Search


Regions


Airport information page

Radio informations:
Tower (TWR) - 123.5 MHz

Airport informations:
Latitude: 25° 53' 02.06" N
Longitude: 093° 46' 16.12" E
Elevation: 487 feet - 148 meters
Operating hours: Remarks
Operating agency: Civil government, landing fees and diplomatic clearance may be required
Timezone: UTC+5:30
Fuel: N/A

Runway information:
12/30 - 7513 x 148 feet< - >2290 x 45 meters

Recent METARs:
VEMR 170630Z 06005KT 3000 HZ NSC 22/11 Q1015
VEMR 170630Z 06005KT 3000 HZ NSC 22/11 Q1015
VEMR 170630Z 06005KT 3000 HZ NSC 22/11 Q1015

Airport on the map: